sensor_id;sensor_type;location;lat;lon;timestamp;P1;durP1;ratioP1;P2;durP2;ratioP2
48241;SDS011;34041;51.812;4.622;2023-03-15T00:01:53;2.20;;;0.75;;
48241;SDS011;34041;51.812;4.622;2023-03-15T00:04:53;2.63;;;1.57;;
48241;SDS011;34041;51.812;4.622;2023-03-15T00:07:53;1.87;;;0.83;;
48241;SDS011;34041;51.812;4.622;2023-03-15T00:10:54;0.87;;;0.60;;
48241;SDS011;34041;51.812;4.622;2023-03-15T00:13:54;2.63;;;0.97;;
48241;SDS011;34041;51.812;4.622;2023-03-15T00:16:54;1.50;;;0.63;;
48241;SDS011;34041;51.812;4.622;2023-03-15T00:19:54;3.78;;;0.85;;
48241;SDS011;34041;51.812;4.622;2023-03-15T00:22:55;3.83;;;0.65;;
48241;SDS011;34041;51.812;4.622;2023-03-15T00:25:55;1.67;;;0.40;;
48241;SDS011;34041;51.812;4.622;2023-03-15T00:28:55;1.80;;;0.82;;
48241;SDS011;34041;51.812;4.622;2023-03-15T00:31:56;2.42;;;0.85;;
48241;SDS011;34041;51.812;4.622;2023-03-15T00:34:56;4.57;;;0.70;;
48241;SDS011;34041;51.812;4.622;2023-03-15T00:37:56;3.07;;;0.80;;
48241;SDS011;34041;51.812;4.622;2023-03-15T00:40:57;1.70;;;0.75;;
48241;SDS011;34041;51.812;4.622;2023-03-15T00:43:57;1.77;;;0.70;;
48241;SDS011;34041;51.812;4.622;2023-03-15T00:46:57;0.80;;;0.50;;
48241;SDS011;34041;51.812;4.622;2023-03-15T00:49:57;1.93;;;0.80;;
48241;SDS011;34041;51.812;4.622;2023-03-15T00:52:57;3.43;;;0.80;;
48241;SDS011;34041;51.812;4.622;2023-03-15T00:55:58;3.63;;;0.80;;
48241;SDS011;34041;51.812;4.622;2023-03-15T00:59:02;3.78;;;0.80;;
48241;SDS011;34041;51.812;4.622;2023-03-15T01:02:03;1.80;;;0.80;;
48241;SDS011;34041;51.812;4.622;2023-03-15T01:05:04;3.00;;;0.60;;
48241;SDS011;34041;51.812;4.622;2023-03-15T01:08:05;4.35;;;0.98;;
48241;SDS011;34041;51.812;4.622;2023-03-15T01:11:06;1.87;;;0.60;;
48241;SDS011;34041;51.812;4.622;2023-03-15T01:14:07;2.17;;;0.85;;
48241;SDS011;34041;51.812;4.622;2023-03-15T01:17:08;2.60;;;0.77;;
48241;SDS011;34041;51.812;4.622;2023-03-15T01:20:10;1.35;;;0.80;;
48241;SDS011;34041;51.812;4.622;2023-03-15T01:23:11;1.48;;;0.60;;
48241;SDS011;34041;51.812;4.622;2023-03-15T01:26:12;2.42;;;0.90;;
48241;SDS011;34041;51.812;4.622;2023-03-15T01:29:13;2.55;;;0.60;;
48241;SDS011;34041;51.812;4.622;2023-03-15T01:32:14;2.20;;;0.90;;
48241;SDS011;34041;51.812;4.622;2023-03-15T01:35:14;1.23;;;0.50;;
48241;SDS011;34041;51.812;4.622;2023-03-15T01:38:14;2.87;;;1.20;;
48241;SDS011;34041;51.812;4.622;2023-03-15T01:41:14;2.13;;;0.80;;
48241;SDS011;34041;51.812;4.622;2023-03-15T01:44:16;2.40;;;0.90;;
48241;SDS011;34041;51.812;4.622;2023-03-15T01:47:17;1.55;;;0.80;;
48241;SDS011;34041;51.812;4.622;2023-03-15T01:50:17;3.42;;;1.05;;
48241;SDS011;34041;51.812;4.622;2023-03-15T01:53:17;1.42;;;0.93;;
48241;SDS011;34041;51.812;4.622;2023-03-15T01:56:17;2.03;;;1.47;;
48241;SDS011;34041;51.812;4.622;2023-03-15T01:59:20;2.28;;;0.98;;
48241;SDS011;34041;51.812;4.622;2023-03-15T02:02:21;2.33;;;1.00;;
48241;SDS011;34041;51.812;4.622;2023-03-15T02:05:29;1.70;;;0.70;;
48241;SDS011;34041;51.812;4.622;2023-03-15T02:08:32;2.25;;;0.80;;
48241;SDS011;34041;51.812;4.622;2023-03-15T02:11:36;1.88;;;1.02;;
48241;SDS011;34041;51.812;4.622;2023-03-15T02:14:36;1.95;;;0.77;;
48241;SDS011;34041;51.812;4.622;2023-03-15T02:17:39;2.95;;;1.30;;
48241;SDS011;34041;51.812;4.622;2023-03-15T02:20:40;2.50;;;1.08;;
48241;SDS011;34041;51.812;4.622;2023-03-15T02:23:42;3.40;;;1.08;;
48241;SDS011;34041;51.812;4.622;2023-03-15T02:26:53;0.95;;;0.60;;
48241;SDS011;34041;51.812;4.622;2023-03-15T02:29:55;2.13;;;0.80;;
48241;SDS011;34041;51.812;4.622;2023-03-15T02:32:55;2.50;;;0.65;;
48241;SDS011;34041;51.812;4.622;2023-03-15T02:36:05;4.40;;;1.25;;
48241;SDS011;34041;51.812;4.622;2023-03-15T02:39:13;3.08;;;0.90;;
48241;SDS011;34041;51.812;4.622;2023-03-15T02:42:13;1.52;;;0.70;;
48241;SDS011;34041;51.812;4.622;2023-03-15T02:45:13;3.00;;;0.80;;
48241;SDS011;34041;51.812;4.622;2023-03-15T02:48:14;2.30;;;1.08;;
48241;SDS011;34041;51.812;4.622;2023-03-15T02:51:16;1.00;;;0.63;;
48241;SDS011;34041;51.812;4.622;2023-03-15T02:54:18;3.20;;;1.10;;
48241;SDS011;34041;51.812;4.622;2023-03-15T02:57:18;2.20;;;0.90;;
48241;SDS011;34041;51.812;4.622;2023-03-15T03:00:19;1.95;;;1.02;;
48241;SDS011;34041;51.812;4.622;2023-03-15T03:03:20;1.77;;;0.65;;
48241;SDS011;34041;51.812;4.622;2023-03-15T03:06:20;1.38;;;0.70;;
48241;SDS011;34041;51.812;4.622;2023-03-15T03:09:21;1.37;;;0.80;;
48241;SDS011;34041;51.812;4.622;2023-03-15T03:12:21;1.77;;;1.00;;
48241;SDS011;34041;51.812;4.622;2023-03-15T03:15:21;1.63;;;0.93;;
48241;SDS011;34041;51.812;4.622;2023-03-15T03:18:22;1.20;;;0.83;;
48241;SDS011;34041;51.812;4.622;2023-03-15T03:21:22;1.13;;;0.57;;
48241;SDS011;34041;51.812;4.622;2023-03-15T03:24:22;1.77;;;0.77;;
48241;SDS011;34041;51.812;4.622;2023-03-15T03:27:24;1.40;;;0.75;;
48241;SDS011;34041;51.812;4.622;2023-03-15T03:30:25;1.70;;;0.80;;
48241;SDS011;34041;51.812;4.622;2023-03-15T03:33:25;2.70;;;1.00;;
48241;SDS011;34041;51.812;4.622;2023-03-15T03:36:25;2.13;;;1.13;;
48241;SDS011;34041;51.812;4.622;2023-03-15T03:39:25;2.72;;;0.88;;
48241;SDS011;34041;51.812;4.622;2023-03-15T03:42:26;2.80;;;1.10;;
48241;SDS011;34041;51.812;4.622;2023-03-15T03:45:26;1.75;;;0.93;;
48241;SDS011;34041;51.812;4.622;2023-03-15T03:48:26;3.17;;;1.20;;
48241;SDS011;34041;51.812;4.622;2023-03-15T03:51:26;4.47;;;1.10;;
48241;SDS011;34041;51.812;4.622;2023-03-15T03:54:26;3.67;;;1.33;;
48241;SDS011;34041;51.812;4.622;2023-03-15T03:57:27;1.17;;;0.77;;
48241;SDS011;34041;51.812;4.622;2023-03-15T04:00:27;3.53;;;1.30;;
48241;SDS011;34041;51.812;4.622;2023-03-15T04:03:27;1.53;;;0.70;;
48241;SDS011;34041;51.812;4.622;2023-03-15T04:06:27;3.30;;;1.20;;
48241;SDS011;34041;51.812;4.622;2023-03-15T04:09:28;2.88;;;0.98;;
48241;SDS011;34041;51.812;4.622;2023-03-15T04:12:28;3.65;;;1.27;;
48241;SDS011;34041;51.812;4.622;2023-03-15T04:15:28;2.93;;;1.17;;
48241;SDS011;34041;51.812;4.622;2023-03-15T04:18:28;3.00;;;1.40;;
48241;SDS011;34041;51.812;4.622;2023-03-15T04:21:29;2.13;;;0.97;;
48241;SDS011;34041;51.812;4.622;2023-03-15T04:24:34;3.33;;;1.65;;
48241;SDS011;34041;51.812;4.622;2023-03-15T04:27:34;2.33;;;1.70;;
48241;SDS011;34041;51.812;4.622;2023-03-15T04:30:35;3.30;;;1.30;;
48241;SDS011;34041;51.812;4.622;2023-03-15T04:33:35;2.42;;;1.30;;
48241;SDS011;34041;51.812;4.622;2023-03-15T04:36:35;4.33;;;1.50;;
48241;SDS011;34041;51.812;4.622;2023-03-15T04:39:36;5.17;;;2.00;;
48241;SDS011;34041;51.812;4.622;2023-03-15T04:42:38;2.63;;;1.40;;
48241;SDS011;34041;51.812;4.622;2023-03-15T04:45:38;2.47;;;1.23;;
48241;SDS011;34041;51.812;4.622;2023-03-15T04:48:39;2.70;;;1.60;;
48241;SDS011;34041;51.812;4.622;2023-03-15T04:51:40;2.55;;;1.27;;
48241;SDS011;34041;51.812;4.622;2023-03-15T04:54:40;2.70;;;1.30;;
48241;SDS011;34041;51.812;4.622;2023-03-15T04:57:41;2.03;;;1.00;;
48241;SDS011;34041;51.812;4.622;2023-03-15T05:00:41;4.65;;;1.40;;
48241;SDS011;34041;51.812;4.622;2023-03-15T05:03:41;3.80;;;1.38;;
48241;SDS011;34041;51.812;4.622;2023-03-15T05:06:41;2.93;;;1.13;;
48241;SDS011;34041;51.812;4.622;2023-03-15T05:09:42;3.23;;;1.30;;
48241;SDS011;34041;51.812;4.622;2023-03-15T05:12:45;3.13;;;1.60;;
48241;SDS011;34041;51.812;4.622;2023-03-15T05:15:45;2.08;;;1.20;;
48241;SDS011;34041;51.812;4.622;2023-03-15T05:18:45;2.30;;;1.38;;
48241;SDS011;34041;51.812;4.622;2023-03-15T05:21:45;2.58;;;1.10;;
48241;SDS011;34041;51.812;4.622;2023-03-15T05:24:46;2.35;;;1.30;;
48241;SDS011;34041;51.812;4.622;2023-03-15T05:27:46;7.90;;;2.13;;
48241;SDS011;34041;51.812;4.622;2023-03-15T05:30:46;4.57;;;1.40;;
48241;SDS011;34041;51.812;4.622;2023-03-15T05:33:47;7.13;;;1.88;;
48241;SDS011;34041;51.812;4.622;2023-03-15T05:36:47;7.22;;;1.95;;
48241;SDS011;34041;51.812;4.622;2023-03-15T05:39:47;14.05;;;1.75;;
48241;SDS011;34041;51.812;4.622;2023-03-15T05:42:48;5.15;;;1.63;;
48241;SDS011;34041;51.812;4.622;2023-03-15T05:45:48;9.57;;;2.27;;
48241;SDS011;34041;51.812;4.622;2023-03-15T05:48:48;5.32;;;1.95;;
48241;SDS011;34041;51.812;4.622;2023-03-15T05:51:48;4.50;;;1.90;;
48241;SDS011;34041;51.812;4.622;2023-03-15T05:54:48;5.20;;;1.40;;
48241;SDS011;34041;51.812;4.622;2023-03-15T05:57:49;3.63;;;1.30;;
48241;SDS011;34041;51.812;4.622;2023-03-15T06:00:49;6.68;;;1.73;;
48241;SDS011;34041;51.812;4.622;2023-03-15T06:03:49;4.10;;;1.13;;
48241;SDS011;34041;51.812;4.622;2023-03-15T06:06:50;3.63;;;1.20;;
48241;SDS011;34041;51.812;4.622;2023-03-15T06:09:50;2.95;;;1.50;;
48241;SDS011;34041;51.812;4.622;2023-03-15T06:12:51;3.10;;;1.13;;
48241;SDS011;34041;51.812;4.622;2023-03-15T06:15:51;3.08;;;1.27;;
48241;SDS011;34041;51.812;4.622;2023-03-15T06:18:51;2.90;;;1.07;;
48241;SDS011;34041;51.812;4.622;2023-03-15T06:21:51;2.77;;;1.20;;
48241;SDS011;34041;51.812;4.622;2023-03-15T06:24:52;3.22;;;0.90;;
48241;SDS011;34041;51.812;4.622;2023-03-15T06:27:52;2.30;;;0.80;;
48241;SDS011;34041;51.812;4.622;2023-03-15T06:30:52;4.03;;;1.20;;
48241;SDS011;34041;51.812;4.622;2023-03-15T06:33:52;1.63;;;0.75;;
48241;SDS011;34041;51.812;4.622;2023-03-15T06:36:52;2.10;;;1.13;;
48241;SDS011;34041;51.812;4.622;2023-03-15T06:39:53;1.90;;;0.90;;
48241;SDS011;34041;51.812;4.622;2023-03-15T06:42:53;2.75;;;1.00;;
48241;SDS011;34041;51.812;4.622;2023-03-15T06:45:53;1.60;;;0.63;;
48241;SDS011;34041;51.812;4.622;2023-03-15T06:48:55;2.92;;;1.20;;
48241;SDS011;34041;51.812;4.622;2023-03-15T06:51:55;2.25;;;0.85;;
48241;SDS011;34041;51.812;4.622;2023-03-15T06:54:56;2.35;;;0.95;;
48241;SDS011;34041;51.812;4.622;2023-03-15T06:57:56;2.08;;;0.80;;
48241;SDS011;34041;51.812;4.622;2023-03-15T07:00:56;3.13;;;1.23;;
48241;SDS011;34041;51.812;4.622;2023-03-15T07:03:57;1.57;;;0.77;;
48241;SDS011;34041;51.812;4.622;2023-03-15T07:06:57;2.47;;;0.97;;
48241;SDS011;34041;51.812;4.622;2023-03-15T07:09:57;2.97;;;0.90;;
48241;SDS011;34041;51.812;4.622;2023-03-15T07:12:57;1.30;;;0.60;;
48241;SDS011;34041;51.812;4.622;2023-03-15T07:15:57;1.00;;;0.63;;
48241;SDS011;34041;51.812;4.622;2023-03-15T07:18:58;2.90;;;0.73;;
48241;SDS011;34041;51.812;4.622;2023-03-15T07:21:59;2.97;;;1.27;;
48241;SDS011;34041;51.812;4.622;2023-03-15T07:24:59;1.80;;;0.93;;
48241;SDS011;34041;51.812;4.622;2023-03-15T07:27:59;3.05;;;1.13;;
48241;SDS011;34041;51.812;4.622;2023-03-15T07:31:01;1.90;;;0.65;;
48241;SDS011;34041;51.812;4.622;2023-03-15T07:34:01;2.28;;;0.90;;
48241;SDS011;34041;51.812;4.622;2023-03-15T07:37:02;1.80;;;0.80;;
48241;SDS011;34041;51.812;4.622;2023-03-15T07:40:02;1.95;;;0.88;;
48241;SDS011;34041;51.812;4.622;2023-03-15T07:43:03;4.25;;;1.20;;
48241;SDS011;34041;51.812;4.622;2023-03-15T07:46:05;2.85;;;1.25;;
48241;SDS011;34041;51.812;4.622;2023-03-15T07:49:06;3.58;;;0.95;;
48241;SDS011;34041;51.812;4.622;2023-03-15T07:52:06;1.60;;;0.77;;
48241;SDS011;34041;51.812;4.622;2023-03-15T07:55:07;2.58;;;1.05;;
48241;SDS011;34041;51.812;4.622;2023-03-15T07:58:07;1.50;;;0.73;;
48241;SDS011;34041;51.812;4.622;2023-03-15T08:01:08;1.97;;;0.80;;
48241;SDS011;34041;51.812;4.622;2023-03-15T08:04:08;4.13;;;1.17;;
48241;SDS011;34041;51.812;4.622;2023-03-15T08:07:08;2.15;;;0.90;;
48241;SDS011;34041;51.812;4.622;2023-03-15T08:10:09;1.17;;;0.63;;
48241;SDS011;34041;51.812;4.622;2023-03-15T08:13:09;3.13;;;1.10;;
48241;SDS011;34041;51.812;4.622;2023-03-15T08:16:10;1.05;;;0.52;;
48241;SDS011;34041;51.812;4.622;2023-03-15T08:19:10;2.07;;;1.00;;
48241;SDS011;34041;51.812;4.622;2023-03-15T08:22:10;1.50;;;0.70;;
48241;SDS011;34041;51.812;4.622;2023-03-15T08:25:11;5.22;;;1.65;;
48241;SDS011;34041;51.812;4.622;2023-03-15T08:28:12;2.97;;;0.88;;
48241;SDS011;34041;51.812;4.622;2023-03-15T08:31:12;1.98;;;0.82;;
48241;SDS011;34041;51.812;4.622;2023-03-15T08:34:12;2.47;;;0.98;;
48241;SDS011;34041;51.812;4.622;2023-03-15T08:37:13;3.50;;;1.40;;
48241;SDS011;34041;51.812;4.622;2023-03-15T08:40:14;2.75;;;1.23;;
48241;SDS011;34041;51.812;4.622;2023-03-15T08:43:14;3.70;;;1.35;;
48241;SDS011;34041;51.812;4.622;2023-03-15T08:46:14;5.72;;;1.20;;
48241;SDS011;34041;51.812;4.622;2023-03-15T08:49:16;2.80;;;1.10;;
48241;SDS011;34041;51.812;4.622;2023-03-15T08:52:16;4.37;;;1.20;;
48241;SDS011;34041;51.812;4.622;2023-03-15T08:55:17;3.30;;;1.30;;
48241;SDS011;34041;51.812;4.622;2023-03-15T08:58:17;3.80;;;1.30;;
48241;SDS011;34041;51.812;4.622;2023-03-15T09:01:17;3.38;;;1.27;;
48241;SDS011;34041;51.812;4.622;2023-03-15T09:04:17;4.03;;;1.27;;
48241;SDS011;34041;51.812;4.622;2023-03-15T09:07:18;3.77;;;1.10;;
48241;SDS011;34041;51.812;4.622;2023-03-15T09:10:18;3.35;;;1.23;;
48241;SDS011;34041;51.812;4.622;2023-03-15T09:13:18;3.42;;;1.40;;
48241;SDS011;34041;51.812;4.622;2023-03-15T09:16:19;2.10;;;1.17;;
48241;SDS011;34041;51.812;4.622;2023-03-15T09:19:19;2.80;;;1.20;;
48241;SDS011;34041;51.812;4.622;2023-03-15T09:22:19;6.50;;;2.00;;
48241;SDS011;34041;51.812;4.622;2023-03-15T09:25:21;2.28;;;0.98;;
48241;SDS011;34041;51.812;4.622;2023-03-15T09:28:21;1.88;;;1.00;;
48241;SDS011;34041;51.812;4.622;2023-03-15T09:31:24;2.53;;;1.00;;
48241;SDS011;34041;51.812;4.622;2023-03-15T09:34:24;3.85;;;1.00;;
48241;SDS011;34041;51.812;4.622;2023-03-15T09:37:24;3.40;;;0.83;;
48241;SDS011;34041;51.812;4.622;2023-03-15T09:40:29;3.83;;;1.10;;
48241;SDS011;34041;51.812;4.622;2023-03-15T09:43:38;1.17;;;0.70;;
48241;SDS011;34041;51.812;4.622;2023-03-15T09:53:07;2.72;;;0.90;;
48241;SDS011;34041;51.812;4.622;2023-03-15T09:56:18;2.08;;;0.70;;
48241;SDS011;34041;51.812;4.622;2023-03-15T09:59:20;4.90;;;1.05;;
48241;SDS011;34041;51.812;4.622;2023-03-15T10:02:28;1.23;;;0.63;;
48241;SDS011;34041;51.812;4.622;2023-03-15T10:05:34;3.08;;;1.08;;
48241;SDS011;34041;51.812;4.622;2023-03-15T10:08:36;4.75;;;1.00;;
48241;SDS011;34041;51.812;4.622;2023-03-15T10:11:40;2.58;;;0.98;;
48241;SDS011;34041;51.812;4.622;2023-03-15T10:18:00;3.67;;;1.00;;
48241;SDS011;34041;51.812;4.622;2023-03-15T10:21:05;3.33;;;1.10;;
48241;SDS011;34041;51.812;4.622;2023-03-15T10:24:21;2.63;;;0.73;;
48241;SDS011;34041;51.812;4.622;2023-03-15T10:27:36;3.53;;;1.00;;
48241;SDS011;34041;51.812;4.622;2023-03-15T10:30:38;3.13;;;0.73;;
48241;SDS011;34041;51.812;4.622;2023-03-15T10:33:39;3.53;;;0.88;;
48241;SDS011;34041;51.812;4.622;2023-03-15T10:36:44;5.18;;;1.10;;
48241;SDS011;34041;51.812;4.622;2023-03-15T10:39:55;2.85;;;0.80;;
48241;SDS011;34041;51.812;4.622;2023-03-15T10:42:56;3.28;;;0.90;;
48241;SDS011;34041;51.812;4.622;2023-03-15T10:46:01;4.72;;;1.10;;
48241;SDS011;34041;51.812;4.622;2023-03-15T10:49:11;4.25;;;1.30;;
48241;SDS011;34041;51.812;4.622;2023-03-15T10:55:27;2.50;;;0.63;;
48241;SDS011;34041;51.812;4.622;2023-03-15T10:58:37;2.20;;;0.87;;
48241;SDS011;34041;51.812;4.622;2023-03-15T11:01:38;4.15;;;1.17;;
48241;SDS011;34041;51.812;4.622;2023-03-15T11:04:42;1.73;;;0.83;;
48241;SDS011;34041;51.812;4.622;2023-03-15T11:07:53;3.63;;;1.00;;
48241;SDS011;34041;51.812;4.622;2023-03-15T11:10:55;2.90;;;0.82;;
48241;SDS011;34041;51.812;4.622;2023-03-15T11:13:59;2.50;;;0.93;;
48241;SDS011;34041;51.812;4.622;2023-03-15T11:17:02;2.40;;;1.00;;
48241;SDS011;34041;51.812;4.622;2023-03-15T11:23:26;5.90;;;1.40;;
48241;SDS011;34041;51.812;4.622;2023-03-15T11:26:27;2.40;;;1.08;;
48241;SDS011;34041;51.812;4.622;2023-03-15T11:29:35;3.15;;;1.05;;
48241;SDS011;34041;51.812;4.622;2023-03-15T11:32:36;2.22;;;0.85;;
48241;SDS011;34041;51.812;4.622;2023-03-15T11:35:42;1.88;;;1.10;;
48241;SDS011;34041;51.812;4.622;2023-03-15T11:38:47;5.05;;;1.25;;
48241;SDS011;34041;51.812;4.622;2023-03-15T11:41:51;4.07;;;0.90;;
48241;SDS011;34041;51.812;4.622;2023-03-15T11:44:54;3.45;;;1.10;;
48241;SDS011;34041;51.812;4.622;2023-03-15T11:47:55;4.07;;;1.20;;
48241;SDS011;34041;51.812;4.622;2023-03-15T11:50:57;2.88;;;1.00;;
48241;SDS011;34041;51.812;4.622;2023-03-15T11:57:02;3.60;;;1.05;;
48241;SDS011;34041;51.812;4.622;2023-03-15T12:03:35;2.95;;;1.30;;
48241;SDS011;34041;51.812;4.622;2023-03-15T12:06:36;2.33;;;1.00;;
48241;SDS011;34041;51.812;4.622;2023-03-15T12:09:38;2.42;;;1.20;;
48241;SDS011;34041;51.812;4.622;2023-03-15T12:12:42;2.13;;;1.33;;
48241;SDS011;34041;51.812;4.622;2023-03-15T12:15:44;2.80;;;0.90;;
48241;SDS011;34041;51.812;4.622;2023-03-15T12:18:45;4.18;;;1.10;;
48241;SDS011;34041;51.812;4.622;2023-03-15T12:22:24;2.55;;;0.93;;
48241;SDS011;34041;51.812;4.622;2023-03-15T12:25:12;1.52;;;1.00;;
48241;SDS011;34041;51.812;4.622;2023-03-15T12:28:24;5.93;;;1.40;;
48241;SDS011;34041;51.812;4.622;2023-03-15T12:31:26;4.00;;;1.15;;
48241;SDS011;34041;51.812;4.622;2023-03-15T12:37:44;4.63;;;1.95;;
48241;SDS011;34041;51.812;4.622;2023-03-15T12:40:52;5.68;;;1.27;;
48241;SDS011;34041;51.812;4.622;2023-03-15T12:43:53;2.50;;;1.00;;
48241;SDS011;34041;51.812;4.622;2023-03-15T12:47:13;2.28;;;1.10;;
48241;SDS011;34041;51.812;4.622;2023-03-15T12:56:56;3.30;;;1.35;;
48241;SDS011;34041;51.812;4.622;2023-03-15T12:59:57;2.35;;;0.80;;
48241;SDS011;34041;51.812;4.622;2023-03-15T13:03:12;2.60;;;1.10;;
48241;SDS011;34041;51.812;4.622;2023-03-15T13:06:20;2.58;;;1.35;;
48241;SDS011;34041;51.812;4.622;2023-03-15T13:12:37;4.57;;;1.08;;
48241;SDS011;34041;51.812;4.622;2023-03-15T13:15:44;1.83;;;0.80;;
48241;SDS011;34041;51.812;4.622;2023-03-15T13:25:02;2.60;;;1.53;;
48241;SDS011;34041;51.812;4.622;2023-03-15T13:34:21;4.15;;;0.90;;
48241;SDS011;34041;51.812;4.622;2023-03-15T13:37:23;1.92;;;1.00;;
48241;SDS011;34041;51.812;4.622;2023-03-15T13:43:32;2.83;;;0.77;;
48241;SDS011;34041;51.812;4.622;2023-03-15T13:46:32;2.65;;;1.25;;
48241;SDS011;34041;51.812;4.622;2023-03-15T13:49:33;3.95;;;1.00;;
48241;SDS011;34041;51.812;4.622;2023-03-15T13:52:33;2.03;;;0.77;;
48241;SDS011;34041;51.812;4.622;2023-03-15T13:55:34;4.23;;;1.10;;
48241;SDS011;34041;51.812;4.622;2023-03-15T13:58:36;4.32;;;0.93;;
48241;SDS011;34041;51.812;4.622;2023-03-15T14:01:37;2.90;;;1.02;;
48241;SDS011;34041;51.812;4.622;2023-03-15T14:04:38;3.30;;;0.95;;
48241;SDS011;34041;51.812;4.622;2023-03-15T14:07:39;1.97;;;0.90;;
48241;SDS011;34041;51.812;4.622;2023-03-15T14:10:40;1.83;;;0.80;;
48241;SDS011;34041;51.812;4.622;2023-03-15T14:13:48;2.70;;;1.00;;
48241;SDS011;34041;51.812;4.622;2023-03-15T14:16:49;2.38;;;0.80;;
48241;SDS011;34041;51.812;4.622;2023-03-15T14:19:53;2.13;;;0.60;;
48241;SDS011;34041;51.812;4.622;2023-03-15T14:23:00;1.83;;;0.65;;
48241;SDS011;34041;51.812;4.622;2023-03-15T14:26:04;3.00;;;0.93;;
48241;SDS011;34041;51.812;4.622;2023-03-15T14:29:07;1.48;;;0.70;;
48241;SDS011;34041;51.812;4.622;2023-03-15T14:32:29;1.75;;;0.65;;
48241;SDS011;34041;51.812;4.622;2023-03-15T14:35:31;2.65;;;1.08;;
48241;SDS011;34041;51.812;4.622;2023-03-15T14:38:38;1.92;;;0.90;;
48241;SDS011;34041;51.812;4.622;2023-03-15T14:41:38;2.25;;;0.88;;
48241;SDS011;34041;51.812;4.622;2023-03-15T14:44:38;2.27;;;1.00;;
48241;SDS011;34041;51.812;4.622;2023-03-15T14:47:43;1.95;;;0.93;;
48241;SDS011;34041;51.812;4.622;2023-03-15T14:50:44;1.73;;;0.85;;
48241;SDS011;34041;51.812;4.622;2023-03-15T14:53:48;4.70;;;1.23;;
48241;SDS011;34041;51.812;4.622;2023-03-15T14:56:50;2.35;;;0.90;;
48241;SDS011;34041;51.812;4.622;2023-03-15T14:59:50;1.48;;;0.80;;
48241;SDS011;34041;51.812;4.622;2023-03-15T15:02:51;3.17;;;1.25;;
48241;SDS011;34041;51.812;4.622;2023-03-15T15:05:52;2.88;;;0.90;;
48241;SDS011;34041;51.812;4.622;2023-03-15T15:08:54;3.60;;;1.20;;
48241;SDS011;34041;51.812;4.622;2023-03-15T15:11:54;1.27;;;0.60;;
48241;SDS011;34041;51.812;4.622;2023-03-15T15:14:54;3.45;;;0.80;;
48241;SDS011;34041;51.812;4.622;2023-03-15T15:17:55;1.17;;;0.70;;
48241;SDS011;34041;51.812;4.622;2023-03-15T15:20:55;2.78;;;0.90;;
48241;SDS011;34041;51.812;4.622;2023-03-15T15:23:57;1.90;;;1.00;;
48241;SDS011;34041;51.812;4.622;2023-03-15T15:26:57;1.58;;;0.90;;
48241;SDS011;34041;51.812;4.622;2023-03-15T15:29:58;2.23;;;1.40;;
48241;SDS011;34041;51.812;4.622;2023-03-15T15:32:58;2.23;;;0.90;;
48241;SDS011;34041;51.812;4.622;2023-03-15T15:35:58;3.97;;;1.57;;
48241;SDS011;34041;51.812;4.622;2023-03-15T15:38:58;2.97;;;1.00;;
48241;SDS011;34041;51.812;4.622;2023-03-15T15:42:03;2.67;;;1.17;;
48241;SDS011;34041;51.812;4.622;2023-03-15T15:45:04;1.90;;;0.98;;
48241;SDS011;34041;51.812;4.622;2023-03-15T15:48:08;2.10;;;1.25;;
48241;SDS011;34041;51.812;4.622;2023-03-15T15:51:18;2.42;;;1.27;;
48241;SDS011;34041;51.812;4.622;2023-03-15T15:54:21;3.35;;;1.25;;
48241;SDS011;34041;51.812;4.622;2023-03-15T15:57:23;2.70;;;1.00;;
48241;SDS011;34041;51.812;4.622;2023-03-15T16:00:26;2.92;;;1.30;;
48241;SDS011;34041;51.812;4.622;2023-03-15T16:03:26;3.53;;;1.77;;
48241;SDS011;34041;51.812;4.622;2023-03-15T16:06:27;3.07;;;1.70;;
48241;SDS011;34041;51.812;4.622;2023-03-15T16:09:27;3.15;;;1.10;;
48241;SDS011;34041;51.812;4.622;2023-03-15T16:12:29;2.90;;;1.80;;
48241;SDS011;34041;51.812;4.622;2023-03-15T16:15:31;2.00;;;1.30;;
48241;SDS011;34041;51.812;4.622;2023-03-15T16:18:31;3.10;;;1.40;;
48241;SDS011;34041;51.812;4.622;2023-03-15T16:24:32;5.28;;;1.77;;
48241;SDS011;34041;51.812;4.622;2023-03-15T16:27:33;3.55;;;1.63;;
48241;SDS011;34041;51.812;4.622;2023-03-15T16:30:34;4.50;;;1.45;;
48241;SDS011;34041;51.812;4.622;2023-03-15T16:33:34;2.42;;;1.35;;
48241;SDS011;34041;51.812;4.622;2023-03-15T16:36:34;2.65;;;1.70;;
48241;SDS011;34041;51.812;4.622;2023-03-15T16:39:35;3.72;;;1.65;;
48241;SDS011;34041;51.812;4.622;2023-03-15T16:42:35;3.22;;;1.50;;
48241;SDS011;34041;51.812;4.622;2023-03-15T16:45:35;2.50;;;1.80;;
48241;SDS011;34041;51.812;4.622;2023-03-15T16:48:36;3.35;;;2.42;;
48241;SDS011;34041;51.812;4.622;2023-03-15T16:51:36;2.63;;;1.77;;
48241;SDS011;34041;51.812;4.622;2023-03-15T16:54:38;2.63;;;1.50;;
48241;SDS011;34041;51.812;4.622;2023-03-15T16:57:40;2.50;;;1.30;;
48241;SDS011;34041;51.812;4.622;2023-03-15T17:00:40;3.70;;;1.75;;
48241;SDS011;34041;51.812;4.622;2023-03-15T17:03:43;2.80;;;1.40;;
48241;SDS011;34041;51.812;4.622;2023-03-15T17:06:43;2.58;;;1.40;;
48241;SDS011;34041;51.812;4.622;2023-03-15T17:09:45;3.92;;;2.17;;
48241;SDS011;34041;51.812;4.622;2023-03-15T17:12:46;2.53;;;1.63;;
48241;SDS011;34041;51.812;4.622;2023-03-15T17:15:47;2.78;;;1.63;;
48241;SDS011;34041;51.812;4.622;2023-03-15T17:18:47;2.90;;;1.75;;
48241;SDS011;34041;51.812;4.622;2023-03-15T17:21:47;2.33;;;1.50;;
48241;SDS011;34041;51.812;4.622;2023-03-15T17:24:48;3.53;;;1.02;;
48241;SDS011;34041;51.812;4.622;2023-03-15T17:27:48;1.95;;;1.10;;
48241;SDS011;34041;51.812;4.622;2023-03-15T17:30:49;2.20;;;1.17;;
48241;SDS011;34041;51.812;4.622;2023-03-15T17:33:50;2.92;;;1.55;;
48241;SDS011;34041;51.812;4.622;2023-03-15T17:36:50;3.70;;;1.63;;
48241;SDS011;34041;51.812;4.622;2023-03-15T17:39:51;4.55;;;1.52;;
48241;SDS011;34041;51.812;4.622;2023-03-15T17:42:51;2.95;;;1.42;;
48241;SDS011;34041;51.812;4.622;2023-03-15T17:45:52;3.45;;;1.70;;
48241;SDS011;34041;51.812;4.622;2023-03-15T17:48:53;3.28;;;1.88;;
48241;SDS011;34041;51.812;4.622;2023-03-15T17:51:54;4.60;;;1.42;;
48241;SDS011;34041;51.812;4.622;2023-03-15T17:54:56;5.00;;;1.80;;
48241;SDS011;34041;51.812;4.622;2023-03-15T17:57:56;3.80;;;1.90;;
48241;SDS011;34041;51.812;4.622;2023-03-15T18:00:56;3.67;;;1.77;;
48241;SDS011;34041;51.812;4.622;2023-03-15T18:03:57;2.78;;;1.40;;
48241;SDS011;34041;51.812;4.622;2023-03-15T18:06:57;4.25;;;1.80;;
48241;SDS011;34041;51.812;4.622;2023-03-15T18:09:58;3.78;;;1.70;;
48241;SDS011;34041;51.812;4.622;2023-03-15T18:12:59;3.10;;;1.60;;
48241;SDS011;34041;51.812;4.622;2023-03-15T18:15:59;3.95;;;1.50;;
48241;SDS011;34041;51.812;4.622;2023-03-15T18:18:59;2.95;;;1.50;;
48241;SDS011;34041;51.812;4.622;2023-03-15T18:22:00;2.55;;;1.75;;
48241;SDS011;34041;51.812;4.622;2023-03-15T18:25:01;3.08;;;1.60;;
48241;SDS011;34041;51.812;4.622;2023-03-15T18:28:02;2.22;;;1.30;;
48241;SDS011;34041;51.812;4.622;2023-03-15T18:31:02;3.05;;;1.77;;
48241;SDS011;34041;51.812;4.622;2023-03-15T18:34:03;3.30;;;1.35;;
48241;SDS011;34041;51.812;4.622;2023-03-15T18:37:03;4.80;;;1.42;;
48241;SDS011;34041;51.812;4.622;2023-03-15T18:40:04;3.40;;;1.58;;
48241;SDS011;34041;51.812;4.622;2023-03-15T18:43:05;3.15;;;1.60;;
48241;SDS011;34041;51.812;4.622;2023-03-15T18:46:05;5.72;;;1.95;;
48241;SDS011;34041;51.812;4.622;2023-03-15T18:49:06;2.28;;;1.48;;
48241;SDS011;34041;51.812;4.622;2023-03-15T18:52:06;4.00;;;1.50;;
48241;SDS011;34041;51.812;4.622;2023-03-15T18:55:07;2.97;;;2.08;;
48241;SDS011;34041;51.812;4.622;2023-03-15T18:58:07;3.17;;;1.70;;
48241;SDS011;34041;51.812;4.622;2023-03-15T19:01:11;3.50;;;1.90;;
48241;SDS011;34041;51.812;4.622;2023-03-15T19:04:12;3.35;;;1.83;;
48241;SDS011;34041;51.812;4.622;2023-03-15T19:07:12;2.65;;;1.90;;
48241;SDS011;34041;51.812;4.622;2023-03-15T19:10:13;2.85;;;1.58;;